sensor_id;sensor_type;location;lat;lon;timestamp;temperature;humidity
55828;DHT22;41758;51.992;5.890;2023-04-24T00:00:06;13.80;72.70
55828;DHT22;41758;51.992;5.890;2023-04-24T00:02:32;13.80;72.60
55828;DHT22;41758;51.992;5.890;2023-04-24T00:04:59;13.80;72.40
55828;DHT22;41758;51.992;5.890;2023-04-24T00:07:27;13.80;72.70
55828;DHT22;41758;51.992;5.890;2023-04-24T00:09:53;13.80;72.40
55828;DHT22;41758;51.992;5.890;2023-04-24T00:12:18;13.70;72.40
55828;DHT22;41758;51.992;5.890;2023-04-24T00:14:44;13.70;72.50
55828;DHT22;41758;51.992;5.890;2023-04-24T00:17:10;13.80;72.50
55828;DHT22;41758;51.992;5.890;2023-04-24T00:19:35;13.80;72.50
55828;DHT22;41758;51.992;5.890;2023-04-24T00:22:02;13.80;72.80
55828;DHT22;41758;51.992;5.890;2023-04-24T00:24:28;13.80;73.00
55828;DHT22;41758;51.992;5.890;2023-04-24T00:26:53;13.90;72.60
55828;DHT22;41758;51.992;5.890;2023-04-24T00:29:19;13.90;72.80
55828;DHT22;41758;51.992;5.890;2023-04-24T00:31:45;13.90;72.70
55828;DHT22;41758;51.992;5.890;2023-04-24T00:34:11;13.90;72.50
55828;DHT22;41758;51.992;5.890;2023-04-24T00:36:38;14.00;72.30
55828;DHT22;41758;51.992;5.890;2023-04-24T00:39:03;13.90;72.50
55828;DHT22;41758;51.992;5.890;2023-04-24T00:41:29;14.00;72.30
55828;DHT22;41758;51.992;5.890;2023-04-24T00:43:55;14.00;72.30
55828;DHT22;41758;51.992;5.890;2023-04-24T00:46:21;14.00;72.40
55828;DHT22;41758;51.992;5.890;2023-04-24T00:48:47;14.00;72.50
55828;DHT22;41758;51.992;5.890;2023-04-24T00:51:13;14.00;72.40
55828;DHT22;41758;51.992;5.890;2023-04-24T00:53:39;14.00;72.20
55828;DHT22;41758;51.992;5.890;2023-04-24T00:56:05;14.00;72.20
55828;DHT22;41758;51.992;5.890;2023-04-24T00:58:31;13.90;72.10
55828;DHT22;41758;51.992;5.890;2023-04-24T01:00:57;13.90;72.30
55828;DHT22;41758;51.992;5.890;2023-04-24T01:03:26;13.90;72.20
55828;DHT22;41758;51.992;5.890;2023-04-24T01:05:55;13.90;72.10
55828;DHT22;41758;51.992;5.890;2023-04-24T01:08:26;13.80;72.40
55828;DHT22;41758;51.992;5.890;2023-04-24T01:10:52;13.90;72.50
55828;DHT22;41758;51.992;5.890;2023-04-24T01:13:21;13.80;72.50
55828;DHT22;41758;51.992;5.890;2023-04-24T01:15:47;13.90;72.60
55828;DHT22;41758;51.992;5.890;2023-04-24T01:18:14;13.90;72.60
55828;DHT22;41758;51.992;5.890;2023-04-24T01:20:41;13.90;72.70
55828;DHT22;41758;51.992;5.890;2023-04-24T01:23:08;13.90;72.30
55828;DHT22;41758;51.992;5.890;2023-04-24T01:25:34;13.90;72.40
55828;DHT22;41758;51.992;5.890;2023-04-24T01:28:00;13.90;72.50
55828;DHT22;41758;51.992;5.890;2023-04-24T01:30:27;13.90;72.50
55828;DHT22;41758;51.992;5.890;2023-04-24T01:32:53;13.90;72.70
55828;DHT22;41758;51.992;5.890;2023-04-24T01:35:19;13.90;72.40
55828;DHT22;41758;51.992;5.890;2023-04-24T01:37:45;13.90;72.30
55828;DHT22;41758;51.992;5.890;2023-04-24T01:40:11;13.90;72.50
55828;DHT22;41758;51.992;5.890;2023-04-24T01:42:38;13.90;72.40
55828;DHT22;41758;51.992;5.890;2023-04-24T01:45:04;13.90;72.40
55828;DHT22;41758;51.992;5.890;2023-04-24T01:47:31;13.80;72.60
55828;DHT22;41758;51.992;5.890;2023-04-24T01:49:58;13.90;72.70
55828;DHT22;41758;51.992;5.890;2023-04-24T01:52:24;13.90;72.50
55828;DHT22;41758;51.992;5.890;2023-04-24T01:54:50;13.90;72.50
55828;DHT22;41758;51.992;5.890;2023-04-24T01:57:16;13.90;72.60
55828;DHT22;41758;51.992;5.890;2023-04-24T01:59:42;13.90;72.60
55828;DHT22;41758;51.992;5.890;2023-04-24T02:02:08;13.90;72.80
55828;DHT22;41758;51.992;5.890;2023-04-24T02:04:34;13.90;72.80
55828;DHT22;41758;51.992;5.890;2023-04-24T02:07:00;13.90;72.80
55828;DHT22;41758;51.992;5.890;2023-04-24T02:09:26;14.00;72.90
55828;DHT22;41758;51.992;5.890;2023-04-24T02:11:51;14.00;72.90
55828;DHT22;41758;51.992;5.890;2023-04-24T02:14:17;14.00;72.80
55828;DHT22;41758;51.992;5.890;2023-04-24T02:16:43;14.00;72.70
55828;DHT22;41758;51.992;5.890;2023-04-24T02:19:09;14.00;72.70
55828;DHT22;41758;51.992;5.890;2023-04-24T02:21:35;14.00;72.80
55828;DHT22;41758;51.992;5.890;2023-04-24T02:24:01;14.00;72.60
55828;DHT22;41758;51.992;5.890;2023-04-24T02:26:27;14.00;72.50
55828;DHT22;41758;51.992;5.890;2023-04-24T02:28:53;14.00;72.70
55828;DHT22;41758;51.992;5.890;2023-04-24T02:31:20;14.00;72.70
55828;DHT22;41758;51.992;5.890;2023-04-24T02:33:47;14.00;72.80
55828;DHT22;41758;51.992;5.890;2023-04-24T02:36:13;14.00;72.90
55828;DHT22;41758;51.992;5.890;2023-04-24T02:38:39;14.10;72.70
55828;DHT22;41758;51.992;5.890;2023-04-24T02:41:05;14.10;72.30
55828;DHT22;41758;51.992;5.890;2023-04-24T02:43:32;14.00;72.20
55828;DHT22;41758;51.992;5.890;2023-04-24T02:45:59;13.90;72.30
55828;DHT22;41758;51.992;5.890;2023-04-24T02:48:24;13.90;72.30
55828;DHT22;41758;51.992;5.890;2023-04-24T02:50:50;13.80;72.30
55828;DHT22;41758;51.992;5.890;2023-04-24T02:53:16;13.80;72.50
55828;DHT22;41758;51.992;5.890;2023-04-24T02:55:42;13.80;72.70
55828;DHT22;41758;51.992;5.890;2023-04-24T02:58:08;13.80;72.70
55828;DHT22;41758;51.992;5.890;2023-04-24T03:00:34;13.80;72.70
55828;DHT22;41758;51.992;5.890;2023-04-24T03:02:59;13.80;72.90
55828;DHT22;41758;51.992;5.890;2023-04-24T03:05:25;13.80;73.10
55828;DHT22;41758;51.992;5.890;2023-04-24T03:07:52;13.80;72.90
55828;DHT22;41758;51.992;5.890;2023-04-24T03:10:20;13.80;72.90
55828;DHT22;41758;51.992;5.890;2023-04-24T03:12:48;13.80;72.90
55828;DHT22;41758;51.992;5.890;2023-04-24T03:15:13;13.80;72.80
55828;DHT22;41758;51.992;5.890;2023-04-24T03:17:39;13.80;72.90
55828;DHT22;41758;51.992;5.890;2023-04-24T03:20:06;13.80;73.00
55828;DHT22;41758;51.992;5.890;2023-04-24T03:22:34;13.80;73.00
55828;DHT22;41758;51.992;5.890;2023-04-24T03:25:01;13.80;73.00
55828;DHT22;41758;51.992;5.890;2023-04-24T03:27:27;13.80;73.10
55828;DHT22;41758;51.992;5.890;2023-04-24T03:29:56;13.80;73.00
55828;DHT22;41758;51.992;5.890;2023-04-24T03:32:26;13.80;72.80
55828;DHT22;41758;51.992;5.890;2023-04-24T03:34:51;13.80;72.90
55828;DHT22;41758;51.992;5.890;2023-04-24T03:37:17;13.80;72.90
55828;DHT22;41758;51.992;5.890;2023-04-24T03:39:49;13.80;73.00
55828;DHT22;41758;51.992;5.890;2023-04-24T03:42:18;13.80;73.00
55828;DHT22;41758;51.992;5.890;2023-04-24T03:44:50;13.80;72.90
55828;DHT22;41758;51.992;5.890;2023-04-24T03:47:20;13.80;73.00
55828;DHT22;41758;51.992;5.890;2023-04-24T03:49:47;13.80;72.80
55828;DHT22;41758;51.992;5.890;2023-04-24T03:52:12;13.70;72.90
55828;DHT22;41758;51.992;5.890;2023-04-24T03:54:38;13.70;73.10
55828;DHT22;41758;51.992;5.890;2023-04-24T03:57:05;13.70;72.90
55828;DHT22;41758;51.992;5.890;2023-04-24T03:59:32;13.70;72.90
55828;DHT22;41758;51.992;5.890;2023-04-24T04:02:10;13.60;72.70
55828;DHT22;41758;51.992;5.890;2023-04-24T04:04:36;13.60;72.80
55828;DHT22;41758;51.992;5.890;2023-04-24T04:07:03;13.60;73.10
55828;DHT22;41758;51.992;5.890;2023-04-24T04:09:30;13.60;72.90
55828;DHT22;41758;51.992;5.890;2023-04-24T04:11:56;13.60;73.00
55828;DHT22;41758;51.992;5.890;2023-04-24T04:14:22;13.60;73.10
55828;DHT22;41758;51.992;5.890;2023-04-24T04:16:49;13.60;73.20
55828;DHT22;41758;51.992;5.890;2023-04-24T04:19:14;13.60;73.10
55828;DHT22;41758;51.992;5.890;2023-04-24T04:21:40;13.60;73.10
55828;DHT22;41758;51.992;5.890;2023-04-24T04:24:18;13.60;73.10
55828;DHT22;41758;51.992;5.890;2023-04-24T04:26:45;13.60;72.90
55828;DHT22;41758;51.992;5.890;2023-04-24T04:29:17;13.60;73.10
55828;DHT22;41758;51.992;5.890;2023-04-24T04:31:49;13.60;73.50
55828;DHT22;41758;51.992;5.890;2023-04-24T04:34:15;13.60;73.60
55828;DHT22;41758;51.992;5.890;2023-04-24T04:36:41;13.60;73.60
55828;DHT22;41758;51.992;5.890;2023-04-24T04:39:43;13.60;73.50
55828;DHT22;41758;51.992;5.890;2023-04-24T04:42:15;13.60;73.40
55828;DHT22;41758;51.992;5.890;2023-04-24T04:44:43;13.60;73.40
55828;DHT22;41758;51.992;5.890;2023-04-24T04:47:15;13.50;73.30
55828;DHT22;41758;51.992;5.890;2023-04-24T04:49:41;13.60;73.40
55828;DHT22;41758;51.992;5.890;2023-04-24T04:52:15;13.50;73.40
55828;DHT22;41758;51.992;5.890;2023-04-24T04:54:43;13.50;73.40
55828;DHT22;41758;51.992;5.890;2023-04-24T04:57:10;13.50;73.40
55828;DHT22;41758;51.992;5.890;2023-04-24T04:59:36;13.50;73.50
55828;DHT22;41758;51.992;5.890;2023-04-24T05:02:07;13.50;73.40
55828;DHT22;41758;51.992;5.890;2023-04-24T05:04:33;13.50;73.40
55828;DHT22;41758;51.992;5.890;2023-04-24T05:06:59;13.50;73.40
55828;DHT22;41758;51.992;5.890;2023-04-24T05:09:27;13.50;73.40
55828;DHT22;41758;51.992;5.890;2023-04-24T05:12:00;13.50;73.30
55828;DHT22;41758;51.992;5.890;2023-04-24T05:14:27;13.50;73.30
55828;DHT22;41758;51.992;5.890;2023-04-24T05:16:53;13.40;73.20
55828;DHT22;41758;51.992;5.890;2023-04-24T05:19:21;13.40;73.40
55828;DHT22;41758;51.992;5.890;2023-04-24T05:21:47;13.50;73.10
55828;DHT22;41758;51.992;5.890;2023-04-24T05:24:12;13.40;73.00
55828;DHT22;41758;51.992;5.890;2023-04-24T05:27:02;13.30;73.00
55828;DHT22;41758;51.992;5.890;2023-04-24T05:29:35;13.30;73.30
55828;DHT22;41758;51.992;5.890;2023-04-24T05:32:03;13.30;73.40
55828;DHT22;41758;51.992;5.890;2023-04-24T05:34:30;13.30;73.60
55828;DHT22;41758;51.992;5.890;2023-04-24T05:36:56;13.30;73.50
55828;DHT22;41758;51.992;5.890;2023-04-24T05:39:22;13.30;73.60
55828;DHT22;41758;51.992;5.890;2023-04-24T05:41:51;13.40;73.60
55828;DHT22;41758;51.992;5.890;2023-04-24T05:44:16;13.40;73.60
55828;DHT22;41758;51.992;5.890;2023-04-24T05:46:42;13.40;73.50
55828;DHT22;41758;51.992;5.890;2023-04-24T05:49:09;13.40;73.60
55828;DHT22;41758;51.992;5.890;2023-04-24T05:51:35;13.40;73.70
55828;DHT22;41758;51.992;5.890;2023-04-24T05:54:01;13.40;73.60
55828;DHT22;41758;51.992;5.890;2023-04-24T05:56:29;13.50;73.60
55828;DHT22;41758;51.992;5.890;2023-04-24T05:58:56;13.50;73.80
55828;DHT22;41758;51.992;5.890;2023-04-24T06:01:21;13.60;73.80
55828;DHT22;41758;51.992;5.890;2023-04-24T06:03:54;13.60;73.70
55828;DHT22;41758;51.992;5.890;2023-04-24T06:06:20;13.60;73.70
55828;DHT22;41758;51.992;5.890;2023-04-24T06:08:46;13.70;73.80
55828;DHT22;41758;51.992;5.890;2023-04-24T06:11:12;13.70;73.90
55828;DHT22;41758;51.992;5.890;2023-04-24T06:13:38;13.80;73.90
55828;DHT22;41758;51.992;5.890;2023-04-24T06:16:22;13.80;73.90
55828;DHT22;41758;51.992;5.890;2023-04-24T06:18:55;13.80;73.70
55828;DHT22;41758;51.992;5.890;2023-04-24T06:21:21;13.80;73.70
55828;DHT22;41758;51.992;5.890;2023-04-24T06:23:46;13.90;73.70
55828;DHT22;41758;51.992;5.890;2023-04-24T06:26:14;13.90;73.70
55828;DHT22;41758;51.992;5.890;2023-04-24T06:28:40;13.90;73.80
55828;DHT22;41758;51.992;5.890;2023-04-24T06:31:05;14.00;73.70
55828;DHT22;41758;51.992;5.890;2023-04-24T06:33:31;14.00;73.60
55828;DHT22;41758;51.992;5.890;2023-04-24T06:35:57;14.00;73.60
55828;DHT22;41758;51.992;5.890;2023-04-24T06:38:23;14.00;73.80
55828;DHT22;41758;51.992;5.890;2023-04-24T06:40:49;14.20;73.90
55828;DHT22;41758;51.992;5.890;2023-04-24T06:43:15;14.20;73.80
55828;DHT22;41758;51.992;5.890;2023-04-24T06:45:41;14.30;73.90
55828;DHT22;41758;51.992;5.890;2023-04-24T06:48:08;14.30;73.70
55828;DHT22;41758;51.992;5.890;2023-04-24T06:50:34;14.30;73.70
55828;DHT22;41758;51.992;5.890;2023-04-24T06:53:00;14.30;73.90
55828;DHT22;41758;51.992;5.890;2023-04-24T06:55:26;14.30;73.80
55828;DHT22;41758;51.992;5.890;2023-04-24T06:57:52;14.30;73.60
55828;DHT22;41758;51.992;5.890;2023-04-24T07:00:17;14.30;73.40
55828;DHT22;41758;51.992;5.890;2023-04-24T07:02:43;14.20;73.30
55828;DHT22;41758;51.992;5.890;2023-04-24T07:05:09;14.20;73.50
55828;DHT22;41758;51.992;5.890;2023-04-24T07:07:34;14.30;73.80
55828;DHT22;41758;51.992;5.890;2023-04-24T07:10:04;14.30;73.80
55828;DHT22;41758;51.992;5.890;2023-04-24T07:12:30;14.30;73.30
55828;DHT22;41758;51.992;5.890;2023-04-24T07:14:55;14.20;72.80
55828;DHT22;41758;51.992;5.890;2023-04-24T07:17:21;14.10;72.90
55828;DHT22;41758;51.992;5.890;2023-04-24T07:19:47;14.10;73.10
55828;DHT22;41758;51.992;5.890;2023-04-24T07:22:12;14.00;73.20
55828;DHT22;41758;51.992;5.890;2023-04-24T07:24:43;14.00;73.30
55828;DHT22;41758;51.992;5.890;2023-04-24T07:27:09;14.00;73.30
55828;DHT22;41758;51.992;5.890;2023-04-24T07:29:35;14.00;73.30
55828;DHT22;41758;51.992;5.890;2023-04-24T07:32:01;13.90;73.30
55828;DHT22;41758;51.992;5.890;2023-04-24T07:34:26;13.90;73.30
55828;DHT22;41758;51.992;5.890;2023-04-24T07:36:52;13.90;73.40
55828;DHT22;41758;51.992;5.890;2023-04-24T07:39:18;13.90;73.20
55828;DHT22;41758;51.992;5.890;2023-04-24T07:41:44;13.80;73.20
55828;DHT22;41758;51.992;5.890;2023-04-24T07:44:09;13.80;73.20
55828;DHT22;41758;51.992;5.890;2023-04-24T07:46:35;13.70;73.00
55828;DHT22;41758;51.992;5.890;2023-04-24T07:49:01;13.70;73.00
55828;DHT22;41758;51.992;5.890;2023-04-24T07:51:27;13.60;73.10
55828;DHT22;41758;51.992;5.890;2023-04-24T07:53:53;13.50;73.00
55828;DHT22;41758;51.992;5.890;2023-04-24T07:56:20;13.50;72.90
55828;DHT22;41758;51.992;5.890;2023-04-24T07:58:46;13.40;73.00
55828;DHT22;41758;51.992;5.890;2023-04-24T08:01:12;13.40;73.10
55828;DHT22;41758;51.992;5.890;2023-04-24T08:03:37;13.30;73.10
55828;DHT22;41758;51.992;5.890;2023-04-24T08:06:03;13.30;73.00
55828;DHT22;41758;51.992;5.890;2023-04-24T08:08:29;13.20;73.00
55828;DHT22;41758;51.992;5.890;2023-04-24T08:10:55;13.10;73.10
55828;DHT22;41758;51.992;5.890;2023-04-24T08:13:20;13.10;73.40
55828;DHT22;41758;51.992;5.890;2023-04-24T08:15:46;13.10;73.50
55828;DHT22;41758;51.992;5.890;2023-04-24T08:18:12;13.20;73.50
55828;DHT22;41758;51.992;5.890;2023-04-24T08:20:39;13.20;73.40
55828;DHT22;41758;51.992;5.890;2023-04-24T08:23:05;13.10;73.30
55828;DHT22;41758;51.992;5.890;2023-04-24T08:25:30;13.10;73.30
55828;DHT22;41758;51.992;5.890;2023-04-24T08:27:56;13.00;73.00
55828;DHT22;41758;51.992;5.890;2023-04-24T08:30:22;13.00;73.40
55828;DHT22;41758;51.992;5.890;2023-04-24T08:32:48;13.00;73.30
55828;DHT22;41758;51.992;5.890;2023-04-24T08:35:14;12.90;73.20
55828;DHT22;41758;51.992;5.890;2023-04-24T08:37:39;12.90;73.30
55828;DHT22;41758;51.992;5.890;2023-04-24T08:40:13;12.90;73.40
55828;DHT22;41758;51.992;5.890;2023-04-24T08:42:43;12.90;73.50
55828;DHT22;41758;51.992;5.890;2023-04-24T08:45:11;12.90;73.70
55828;DHT22;41758;51.992;5.890;2023-04-24T08:47:38;13.00;73.80
55828;DHT22;41758;51.992;5.890;2023-04-24T08:50:05;13.00;74.00
55828;DHT22;41758;51.992;5.890;2023-04-24T08:52:33;13.10;73.90
55828;DHT22;41758;51.992;5.890;2023-04-24T08:55:00;13.10;73.70
55828;DHT22;41758;51.992;5.890;2023-04-24T08:57:26;13.10;73.60
55828;DHT22;41758;51.992;5.890;2023-04-24T08:59:53;13.10;73.60
55828;DHT22;41758;51.992;5.890;2023-04-24T09:02:21;13.10;73.70
55828;DHT22;41758;51.992;5.890;2023-04-24T09:04:47;13.10;73.50
55828;DHT22;41758;51.992;5.890;2023-04-24T09:07:14;13.10;73.50
55828;DHT22;41758;51.992;5.890;2023-04-24T09:09:42;13.10;73.60
55828;DHT22;41758;51.992;5.890;2023-04-24T09:12:07;13.10;73.50
55828;DHT22;41758;51.992;5.890;2023-04-24T09:14:35;13.10;73.20
55828;DHT22;41758;51.992;5.890;2023-04-24T09:17:03;13.00;73.20
55828;DHT22;41758;51.992;5.890;2023-04-24T09:19:30;13.00;73.20
55828;DHT22;41758;51.992;5.890;2023-04-24T09:21:56;13.00;73.30
55828;DHT22;41758;51.992;5.890;2023-04-24T09:24:22;13.00;73.50
55828;DHT22;41758;51.992;5.890;2023-04-24T09:26:49;13.00;73.60
55828;DHT22;41758;51.992;5.890;2023-04-24T09:29:18;13.00;73.80
55828;DHT22;41758;51.992;5.890;2023-04-24T09:31:45;13.10;73.90
55828;DHT22;41758;51.992;5.890;2023-04-24T09:34:11;13.10;73.80
55828;DHT22;41758;51.992;5.890;2023-04-24T09:36:43;13.10;73.40
55828;DHT22;41758;51.992;5.890;2023-04-24T09:39:14;13.20;73.60
55828;DHT22;41758;51.992;5.890;2023-04-24T09:44:20;13.20;73.80
55828;DHT22;41758;51.992;5.890;2023-04-24T09:46:55;13.20;73.70
55828;DHT22;41758;51.992;5.890;2023-04-24T09:49:30;13.20;73.40
55828;DHT22;41758;51.992;5.890;2023-04-24T09:52:11;13.20;73.30
55828;DHT22;41758;51.992;5.890;2023-04-24T09:54:38;13.20;73.40
55828;DHT22;41758;51.992;5.890;2023-04-24T09:57:03;13.20;73.20
55828;DHT22;41758;51.992;5.890;2023-04-24T09:59:30;13.20;73.10
55828;DHT22;41758;51.992;5.890;2023-04-24T10:01:55;13.20;73.60
55828;DHT22;41758;51.992;5.890;2023-04-24T10:04:27;13.30;73.60
55828;DHT22;41758;51.992;5.890;2023-04-24T10:06:54;13.30;73.80
55828;DHT22;41758;51.992;5.890;2023-04-24T10:09:22;13.40;73.70
55828;DHT22;41758;51.992;5.890;2023-04-24T10:11:50;13.50;74.10
55828;DHT22;41758;51.992;5.890;2023-04-24T10:14:18;13.60;74.20
55828;DHT22;41758;51.992;5.890;2023-04-24T10:16:45;13.70;74.30
55828;DHT22;41758;51.992;5.890;2023-04-24T10:19:12;13.80;74.30
55828;DHT22;41758;51.992;5.890;2023-04-24T10:21:40;13.90;74.40
55828;DHT22;41758;51.992;5.890;2023-04-24T10:24:12;14.00;74.40
55828;DHT22;41758;51.992;5.890;2023-04-24T10:26:38;14.10;74.60
55828;DHT22;41758;51.992;5.890;2023-04-24T10:29:06;14.20;74.70
55828;DHT22;41758;51.992;5.890;2023-04-24T10:31:38;14.30;74.50
55828;DHT22;41758;51.992;5.890;2023-04-24T10:34:05;14.40;74.70
55828;DHT22;41758;51.992;5.890;2023-04-24T10:36:33;14.50;74.20
55828;DHT22;41758;51.992;5.890;2023-04-24T10:39:02;14.60;74.30
55828;DHT22;41758;51.992;5.890;2023-04-24T10:41:30;14.50;72.70
55828;DHT22;41758;51.992;5.890;2023-04-24T10:44:13;14.40;72.40
55828;DHT22;41758;51.992;5.890;2023-04-24T10:46:43;14.40;72.40
55828;DHT22;41758;51.992;5.890;2023-04-24T10:49:09;14.20;71.20
55828;DHT22;41758;51.992;5.890;2023-04-24T10:51:49;14.10;71.90
55828;DHT22;41758;51.992;5.890;2023-04-24T10:54:41;14.10;72.10
55828;DHT22;41758;51.992;5.890;2023-04-24T10:59:47;14.00;72.50
55828;DHT22;41758;51.992;5.890;2023-04-24T11:02:17;14.00;71.50
55828;DHT22;41758;51.992;5.890;2023-04-24T11:04:43;14.00;71.80
55828;DHT22;41758;51.992;5.890;2023-04-24T11:07:11;14.00;72.00
55828;DHT22;41758;51.992;5.890;2023-04-24T11:09:37;13.90;71.80
55828;DHT22;41758;51.992;5.890;2023-04-24T11:12:12;13.90;71.60
55828;DHT22;41758;51.992;5.890;2023-04-24T11:17:35;13.70;71.10
55828;DHT22;41758;51.992;5.890;2023-04-24T11:20:07;13.60;71.80
55828;DHT22;41758;51.992;5.890;2023-04-24T11:22:37;13.60;72.30
55828;DHT22;41758;51.992;5.890;2023-04-24T11:25:04;13.70;72.40
55828;DHT22;41758;51.992;5.890;2023-04-24T11:27:42;13.80;72.70
55828;DHT22;41758;51.992;5.890;2023-04-24T11:30:10;13.90;73.00
55828;DHT22;41758;51.992;5.890;2023-04-24T11:32:40;14.00;72.40
55828;DHT22;41758;51.992;5.890;2023-04-24T11:37:42;14.10;72.70
55828;DHT22;41758;51.992;5.890;2023-04-24T11:40:12;14.10;72.80
55828;DHT22;41758;51.992;5.890;2023-04-24T11:42:40;14.30;72.10
55828;DHT22;41758;51.992;5.890;2023-04-24T11:47:35;14.40;72.80
55828;DHT22;41758;51.992;5.890;2023-04-24T11:50:02;14.50;72.90
55828;DHT22;41758;51.992;5.890;2023-04-24T11:52:29;14.60;72.60
55828;DHT22;41758;51.992;5.890;2023-04-24T11:54:55;14.60;71.30
55828;DHT22;41758;51.992;5.890;2023-04-24T11:57:23;14.50;70.80
55828;DHT22;41758;51.992;5.890;2023-04-24T11:59:49;14.50;71.00
55828;DHT22;41758;51.992;5.890;2023-04-24T12:02:26;14.40;70.90
55828;DHT22;41758;51.992;5.890;2023-04-24T12:04:55;14.40;71.10
55828;DHT22;41758;51.992;5.890;2023-04-24T12:07:22;14.30;71.10
55828;DHT22;41758;51.992;5.890;2023-04-24T12:09:57;14.20;70.20
55828;DHT22;41758;51.992;5.890;2023-04-24T12:12:26;14.00;70.00
55828;DHT22;41758;51.992;5.890;2023-04-24T12:14:56;13.80;70.60
55828;DHT22;41758;51.992;5.890;2023-04-24T12:17:26;13.70;71.60
55828;DHT22;41758;51.992;5.890;2023-04-24T12:19:52;13.80;72.70
55828;DHT22;41758;51.992;5.890;2023-04-24T12:22:19;14.00;73.30
55828;DHT22;41758;51.992;5.890;2023-04-24T12:25:04;14.00;73.00
55828;DHT22;41758;51.992;5.890;2023-04-24T12:27:34;14.20;73.30
55828;DHT22;41758;51.992;5.890;2023-04-24T12:30:01;14.20;73.30
55828;DHT22;41758;51.992;5.890;2023-04-24T12:32:27;14.30;73.20
55828;DHT22;41758;51.992;5.890;2023-04-24T12:34:53;14.40;73.30
55828;DHT22;41758;51.992;5.890;2023-04-24T12:37:20;14.50;73.30
55828;DHT22;41758;51.992;5.890;2023-04-24T12:40:06;14.60;72.80
55828;DHT22;41758;51.992;5.890;2023-04-24T12:42:33;14.60;72.60
55828;DHT22;41758;51.992;5.890;2023-04-24T12:45:02;14.70;72.60
55828;DHT22;41758;51.992;5.890;2023-04-24T12:47:28;14.80;72.50
55828;DHT22;41758;51.992;5.890;2023-04-24T12:49:55;14.80;71.70
55828;DHT22;41758;51.992;5.890;2023-04-24T12:52:25;14.90;71.30
55828;DHT22;41758;51.992;5.890;2023-04-24T12:54:55;14.90;71.20
55828;DHT22;41758;51.992;5.890;2023-04-24T12:57:22;14.90;71.70
55828;DHT22;41758;51.992;5.890;2023-04-24T12:59:48;14.90;70.60
55828;DHT22;41758;51.992;5.890;2023-04-24T13:02:14;14.90;71.20
55828;DHT22;41758;51.992;5.890;2023-04-24T13:04:44;14.90;71.20
55828;DHT22;41758;51.992;5.890;2023-04-24T13:07:11;15.10;72.00
55828;DHT22;41758;51.992;5.890;2023-04-24T13:09:37;15.30;72.10
55828;DHT22;41758;51.992;5.890;2023-04-24T13:12:03;15.50;72.20
55828;DHT22;41758;51.992;5.890;2023-04-24T13:14:31;15.60;71.90
55828;DHT22;41758;51.992;5.890;2023-04-24T13:16:57;15.80;72.00
55828;DHT22;41758;51.992;5.890;2023-04-24T13:19:27;15.90;71.80
55828;DHT22;41758;51.992;5.890;2023-04-24T13:21:55;15.90;71.40
55828;DHT22;41758;51.992;5.890;2023-04-24T13:24:21;15.90;71.30
55828;DHT22;41758;51.992;5.890;2023-04-24T13:26:50;15.80;70.80
55828;DHT22;41758;51.992;5.890;2023-04-24T13:29:17;15.70;70.20
55828;DHT22;41758;51.992;5.890;2023-04-24T13:31:43;15.60;68.80
55828;DHT22;41758;51.992;5.890;2023-04-24T13:34:08;15.40;68.80
55828;DHT22;41758;51.992;5.890;2023-04-24T13:36:34;15.30;69.40
55828;DHT22;41758;51.992;5.890;2023-04-24T13:39:01;15.20;69.40
55828;DHT22;41758;51.992;5.890;2023-04-24T13:41:26;15.10;69.80
55828;DHT22;41758;51.992;5.890;2023-04-24T13:43:52;15.00;68.70
55828;DHT22;41758;51.992;5.890;2023-04-24T13:46:18;14.90;69.60
55828;DHT22;41758;51.992;5.890;2023-04-24T13:48:43;14.90;69.70
55828;DHT22;41758;51.992;5.890;2023-04-24T13:51:09;14.80;70.00
55828;DHT22;41758;51.992;5.890;2023-04-24T13:53:35;14.80;69.60
55828;DHT22;41758;51.992;5.890;2023-04-24T13:56:04;14.70;69.60
55828;DHT22;41758;51.992;5.890;2023-04-24T13:58:29;14.50;69.90
55828;DHT22;41758;51.992;5.890;2023-04-24T14:00:55;14.50;70.10
55828;DHT22;41758;51.992;5.890;2023-04-24T14:03:21;14.50;71.40
55828;DHT22;41758;51.992;5.890;2023-04-24T14:05:46;14.70;72.40
55828;DHT22;41758;51.992;5.890;2023-04-24T14:08:12;15.00;72.70
55828;DHT22;41758;51.992;5.890;2023-04-24T14:10:38;15.20;72.10
55828;DHT22;41758;51.992;5.890;2023-04-24T14:13:03;15.40;72.20
55828;DHT22;41758;51.992;5.890;2023-04-24T14:15:29;15.80;72.70
55828;DHT22;41758;51.992;5.890;2023-04-24T14:17:55;16.00;71.50
55828;DHT22;41758;51.992;5.890;2023-04-24T14:20:20;16.00;70.20
55828;DHT22;41758;51.992;5.890;2023-04-24T14:22:47;16.00;69.40
55828;DHT22;41758;51.992;5.890;2023-04-24T14:25:12;16.10;70.30
55828;DHT22;41758;51.992;5.890;2023-04-24T14:27:38;16.30;70.00
55828;DHT22;41758;51.992;5.890;2023-04-24T14:30:06;16.50;70.60
55828;DHT22;41758;51.992;5.890;2023-04-24T14:32:31;16.70;70.40
55828;DHT22;41758;51.992;5.890;2023-04-24T14:34:57;16.90;70.10
55828;DHT22;41758;51.992;5.890;2023-04-24T14:37:23;17.00;69.80
55828;DHT22;41758;51.992;5.890;2023-04-24T14:39:48;16.90;68.20
55828;DHT22;41758;51.992;5.890;2023-04-24T14:42:14;16.70;67.70
55828;DHT22;41758;51.992;5.890;2023-04-24T14:44:42;16.50;67.90
55828;DHT22;41758;51.992;5.890;2023-04-24T14:47:07;16.30;67.90
55828;DHT22;41758;51.992;5.890;2023-04-24T14:49:33;16.10;67.50
55828;DHT22;41758;51.992;5.890;2023-04-24T14:51:59;15.90;67.50
55828;DHT22;41758;51.992;5.890;2023-04-24T14:54:24;15.80;68.30
55828;DHT22;41758;51.992;5.890;2023-04-24T14:56:50;15.90;68.80
55828;DHT22;41758;51.992;5.890;2023-04-24T14:59:16;15.90;68.80
55828;DHT22;41758;51.992;5.890;2023-04-24T15:01:42;15.90;69.30
55828;DHT22;41758;51.992;5.890;2023-04-24T15:04:07;15.90;68.00
55828;DHT22;41758;51.992;5.890;2023-04-24T15:06:33;15.90;67.50
55828;DHT22;41758;51.992;5.890;2023-04-24T15:08:59;15.80;66.80
55828;DHT22;41758;51.992;5.890;2023-04-24T15:11:25;15.80;67.70
55828;DHT22;41758;51.992;5.890;2023-04-24T15:13:51;15.80;66.70
55828;DHT22;41758;51.992;5.890;2023-04-24T15:16:17;15.80;68.50
55828;DHT22;41758;51.992;5.890;2023-04-24T15:18:42;15.80;68.30
55828;DHT22;41758;51.992;5.890;2023-04-24T15:21:08;15.80;69.10
55828;DHT22;41758;51.992;5.890;2023-04-24T15:23:34;15.90;70.30
55828;DHT22;41758;51.992;5.890;2023-04-24T15:26:00;16.00;70.40
55828;DHT22;41758;51.992;5.890;2023-04-24T15:28:26;16.10;68.00
55828;DHT22;41758;51.992;5.890;2023-04-24T15:30:52;16.00;67.30
55828;DHT22;41758;51.992;5.890;2023-04-24T15:33:17;16.00;68.20
55828;DHT22;41758;51.992;5.890;2023-04-24T15:35:43;15.90;68.80
55828;DHT22;41758;51.992;5.890;2023-04-24T15:38:09;15.90;69.00
55828;DHT22;41758;51.992;5.890;2023-04-24T15:40:34;16.10;69.00
55828;DHT22;41758;51.992;5.890;2023-04-24T15:43:00;16.10;68.60